Accueil
METAR-TAF:

METAR-TAF

Aéroports :

Aéroport de Yao

Yao, Japon

latitude: 34-36N, longitude: 135-36E, altitude: 10 m

Observation

Le bulletin a été fait il y a 40 minutes, à 06:00 UTC
Vent 14 kt de ouest
Température 33°C
Humidité 63%
Pression 1008 hPa
Visibilité 10 km ou plus
Quelques nuages à une hauteur de 2000 ft
Quelques nuages à une hauteur de 2500 ft, Cumulonimbus.
Nuages fragmentés

METAR: RJOY 250600Z 28014KT 9999 FEW020 FEW025CB BKN/// 33/25 Q1008

Heure: 15:40 (06:40 UTC)


TAF: absent

Observations et prévisions météorologiques de plus de 4000 aéroports (messages METAR et TAF).

Les stations disponibles sont représentées par des disques jaunes et rouges sur la carte.

Passer la souris dessus pour voir le nom de la station.

Cliquer dessus pour voir les observations et prévisions météorologiques.

Pour changer de carte: cliquez sur les boutons verts avec une croix noire pour zoomer, sur le bouton vert avec un tiret pour effectuer un zoom arrière, ou sur les flèches vertes pour les cartes adjacentes.


METAR-TAF: